sensor_id;sensor_type;location;lat;lon;timestamp;P1;durP1;ratioP1;P2;durP2;ratioP2
757;SDS011;363;48.764;9.172;2022-12-07T00:01:36;6.90;;;5.95;;
757;SDS011;363;48.764;9.172;2022-12-07T00:04:06;7.65;;;6.68;;
757;SDS011;363;48.764;9.172;2022-12-07T00:06:41;7.97;;;6.63;;
757;SDS011;363;48.764;9.172;2022-12-07T00:09:15;7.45;;;6.40;;
757;SDS011;363;48.764;9.172;2022-12-07T00:11:43;6.18;;;5.57;;
757;SDS011;363;48.764;9.172;2022-12-07T00:14:10;6.85;;;6.15;;
757;SDS011;363;48.764;9.172;2022-12-07T00:16:38;7.50;;;6.13;;
757;SDS011;363;48.764;9.172;2022-12-07T00:19:04;7.90;;;6.97;;
757;SDS011;363;48.764;9.172;2022-12-07T00:21:31;7.40;;;6.65;;
757;SDS011;363;48.764;9.172;2022-12-07T00:23:58;7.07;;;6.38;;
757;SDS011;363;48.764;9.172;2022-12-07T00:26:25;7.35;;;6.65;;
757;SDS011;363;48.764;9.172;2022-12-07T00:29:03;8.20;;;6.55;;
757;SDS011;363;48.764;9.172;2022-12-07T00:31:31;8.02;;;6.60;;
757;SDS011;363;48.764;9.172;2022-12-07T00:34:00;7.35;;;6.65;;
757;SDS011;363;48.764;9.172;2022-12-07T00:36:26;8.18;;;6.97;;
757;SDS011;363;48.764;9.172;2022-12-07T00:38:52;7.33;;;6.23;;
757;SDS011;363;48.764;9.172;2022-12-07T00:41:20;8.40;;;6.68;;
757;SDS011;363;48.764;9.172;2022-12-07T00:43:48;7.47;;;6.68;;
757;SDS011;363;48.764;9.172;2022-12-07T00:46:14;9.00;;;7.30;;
757;SDS011;363;48.764;9.172;2022-12-07T00:48:41;9.88;;;8.43;;
757;SDS011;363;48.764;9.172;2022-12-07T00:51:07;10.35;;;7.65;;
757;SDS011;363;48.764;9.172;2022-12-07T00:53:34;8.98;;;7.63;;
757;SDS011;363;48.764;9.172;2022-12-07T00:56:07;8.10;;;7.20;;
757;SDS011;363;48.764;9.172;2022-12-07T00:58:54;8.63;;;7.20;;
757;SDS011;363;48.764;9.172;2022-12-07T01:01:21;7.70;;;6.90;;
757;SDS011;363;48.764;9.172;2022-12-07T01:03:47;9.35;;;7.63;;
757;SDS011;363;48.764;9.172;2022-12-07T01:06:14;10.60;;;8.07;;
757;SDS011;363;48.764;9.172;2022-12-07T01:08:43;8.50;;;7.60;;
757;SDS011;363;48.764;9.172;2022-12-07T01:11:09;8.53;;;7.33;;
757;SDS011;363;48.764;9.172;2022-12-07T01:13:41;10.77;;;8.40;;
757;SDS011;363;48.764;9.172;2022-12-07T01:16:07;10.02;;;7.07;;
757;SDS011;363;48.764;9.172;2022-12-07T01:18:35;9.43;;;7.88;;
757;SDS011;363;48.764;9.172;2022-12-07T01:21:01;7.93;;;7.13;;
757;SDS011;363;48.764;9.172;2022-12-07T01:23:27;10.80;;;8.25;;
757;SDS011;363;48.764;9.172;2022-12-07T01:25:54;9.25;;;8.18;;
757;SDS011;363;48.764;9.172;2022-12-07T01:28:21;10.20;;;8.10;;
757;SDS011;363;48.764;9.172;2022-12-07T01:30:54;9.80;;;7.90;;
757;SDS011;363;48.764;9.172;2022-12-07T01:33:32;10.35;;;8.48;;
757;SDS011;363;48.764;9.172;2022-12-07T01:36:03;8.90;;;8.00;;
757;SDS011;363;48.764;9.172;2022-12-07T01:38:49;11.18;;;8.88;;
757;SDS011;363;48.764;9.172;2022-12-07T01:41:17;10.50;;;8.65;;
757;SDS011;363;48.764;9.172;2022-12-07T01:46:55;9.20;;;7.72;;
757;SDS011;363;48.764;9.172;2022-12-07T01:49:33;12.07;;;9.13;;
757;SDS011;363;48.764;9.172;2022-12-07T01:54:48;10.38;;;8.20;;
757;SDS011;363;48.764;9.172;2022-12-07T01:57:17;9.75;;;8.38;;
757;SDS011;363;48.764;9.172;2022-12-07T01:59:45;9.00;;;8.05;;
757;SDS011;363;48.764;9.172;2022-12-07T02:02:23;9.40;;;7.93;;
757;SDS011;363;48.764;9.172;2022-12-07T02:04:52;12.48;;;9.20;;
757;SDS011;363;48.764;9.172;2022-12-07T02:07:19;12.85;;;9.02;;
757;SDS011;363;48.764;9.172;2022-12-07T02:09:46;10.25;;;8.32;;
757;SDS011;363;48.764;9.172;2022-12-07T02:12:12;10.70;;;7.83;;
757;SDS011;363;48.764;9.172;2022-12-07T02:14:38;11.77;;;8.70;;
757;SDS011;363;48.764;9.172;2022-12-07T02:17:07;9.23;;;8.07;;
757;SDS011;363;48.764;9.172;2022-12-07T02:30:54;11.25;;;8.75;;
757;SDS011;363;48.764;9.172;2022-12-07T02:33:31;8.63;;;7.03;;
757;SDS011;363;48.764;9.172;2022-12-07T02:36:04;12.18;;;8.95;;
757;SDS011;363;48.764;9.172;2022-12-07T02:38:55;10.52;;;8.10;;
757;SDS011;363;48.764;9.172;2022-12-07T02:41:33;9.20;;;7.18;;
757;SDS011;363;48.764;9.172;2022-12-07T02:44:06;10.88;;;8.50;;
757;SDS011;363;48.764;9.172;2022-12-07T02:46:38;8.95;;;7.38;;
757;SDS011;363;48.764;9.172;2022-12-07T02:49:07;9.50;;;7.63;;
757;SDS011;363;48.764;9.172;2022-12-07T02:51:38;9.60;;;7.38;;
757;SDS011;363;48.764;9.172;2022-12-07T02:54:23;9.90;;;7.50;;
757;SDS011;363;48.764;9.172;2022-12-07T03:02:35;9.48;;;7.43;;
757;SDS011;363;48.764;9.172;2022-12-07T03:13:10;7.82;;;6.50;;
757;SDS011;363;48.764;9.172;2022-12-07T03:18:44;8.77;;;7.25;;
757;SDS011;363;48.764;9.172;2022-12-07T03:21:14;9.35;;;7.00;;
757;SDS011;363;48.764;9.172;2022-12-07T03:23:48;8.80;;;7.50;;
757;SDS011;363;48.764;9.172;2022-12-07T03:26:18;7.90;;;6.97;;
757;SDS011;363;48.764;9.172;2022-12-07T03:28:48;10.40;;;7.22;;
757;SDS011;363;48.764;9.172;2022-12-07T03:31:19;8.80;;;6.60;;
757;SDS011;363;48.764;9.172;2022-12-07T03:33:54;8.43;;;6.85;;
757;SDS011;363;48.764;9.172;2022-12-07T03:36:37;9.25;;;6.90;;
757;SDS011;363;48.764;9.172;2022-12-07T03:41:54;9.18;;;7.45;;
757;SDS011;363;48.764;9.172;2022-12-07T03:44:21;10.13;;;7.20;;
757;SDS011;363;48.764;9.172;2022-12-07T03:49:41;10.02;;;8.23;;
757;SDS011;363;48.764;9.172;2022-12-07T03:57:13;8.88;;;7.20;;
757;SDS011;363;48.764;9.172;2022-12-07T03:59:39;7.82;;;6.65;;
757;SDS011;363;48.764;9.172;2022-12-07T04:02:06;8.20;;;6.88;;
757;SDS011;363;48.764;9.172;2022-12-07T04:04:33;9.90;;;8.13;;
757;SDS011;363;48.764;9.172;2022-12-07T04:06:59;8.48;;;7.00;;
757;SDS011;363;48.764;9.172;2022-12-07T04:09:26;8.43;;;7.10;;
757;SDS011;363;48.764;9.172;2022-12-07T04:11:52;8.75;;;7.03;;
757;SDS011;363;48.764;9.172;2022-12-07T04:14:17;9.80;;;7.80;;
757;SDS011;363;48.764;9.172;2022-12-07T04:16:50;9.17;;;7.50;;
757;SDS011;363;48.764;9.172;2022-12-07T04:19:19;9.05;;;7.93;;
757;SDS011;363;48.764;9.172;2022-12-07T04:21:46;8.93;;;7.45;;
757;SDS011;363;48.764;9.172;2022-12-07T04:24:12;11.10;;;7.95;;
757;SDS011;363;48.764;9.172;2022-12-07T04:26:39;9.57;;;7.85;;
757;SDS011;363;48.764;9.172;2022-12-07T04:29:05;12.70;;;9.93;;
757;SDS011;363;48.764;9.172;2022-12-07T04:31:31;9.50;;;7.73;;
757;SDS011;363;48.764;9.172;2022-12-07T04:33:57;9.13;;;7.03;;
757;SDS011;363;48.764;9.172;2022-12-07T04:36:22;7.27;;;6.40;;
757;SDS011;363;48.764;9.172;2022-12-07T04:38:48;9.70;;;6.93;;
757;SDS011;363;48.764;9.172;2022-12-07T04:41:14;9.33;;;7.30;;
757;SDS011;363;48.764;9.172;2022-12-07T04:43:39;9.83;;;7.13;;
757;SDS011;363;48.764;9.172;2022-12-07T04:46:05;7.40;;;6.23;;
757;SDS011;363;48.764;9.172;2022-12-07T04:48:31;7.40;;;5.90;;
757;SDS011;363;48.764;9.172;2022-12-07T04:50:56;6.27;;;5.67;;
757;SDS011;363;48.764;9.172;2022-12-07T04:53:22;6.77;;;5.80;;
757;SDS011;363;48.764;9.172;2022-12-07T04:55:48;5.33;;;4.80;;
757;SDS011;363;48.764;9.172;2022-12-07T04:58:13;4.73;;;4.10;;
757;SDS011;363;48.764;9.172;2022-12-07T05:00:39;5.17;;;4.53;;
757;SDS011;363;48.764;9.172;2022-12-07T05:03:05;4.90;;;4.37;;
757;SDS011;363;48.764;9.172;2022-12-07T05:05:31;4.97;;;4.37;;
757;SDS011;363;48.764;9.172;2022-12-07T05:07:57;4.53;;;4.13;;
757;SDS011;363;48.764;9.172;2022-12-07T05:10:22;6.97;;;4.77;;
757;SDS011;363;48.764;9.172;2022-12-07T05:12:48;5.07;;;3.77;;
757;SDS011;363;48.764;9.172;2022-12-07T05:15:14;5.13;;;4.63;;
757;SDS011;363;48.764;9.172;2022-12-07T05:17:40;6.20;;;4.25;;
757;SDS011;363;48.764;9.172;2022-12-07T05:20:07;4.20;;;3.80;;
757;SDS011;363;48.764;9.172;2022-12-07T05:22:33;5.93;;;4.43;;
757;SDS011;363;48.764;9.172;2022-12-07T05:24:59;5.10;;;4.20;;
757;SDS011;363;48.764;9.172;2022-12-07T05:27:25;5.10;;;4.70;;
757;SDS011;363;48.764;9.172;2022-12-07T05:29:51;6.00;;;4.73;;
757;SDS011;363;48.764;9.172;2022-12-07T05:32:17;5.87;;;4.90;;
757;SDS011;363;48.764;9.172;2022-12-07T05:34:43;6.25;;;5.43;;
757;SDS011;363;48.764;9.172;2022-12-07T05:37:08;6.13;;;5.03;;
757;SDS011;363;48.764;9.172;2022-12-07T05:39:34;6.53;;;5.23;;
757;SDS011;363;48.764;9.172;2022-12-07T05:42:00;7.40;;;5.87;;
757;SDS011;363;48.764;9.172;2022-12-07T05:44:38;5.82;;;5.07;;
757;SDS011;363;48.764;9.172;2022-12-07T05:47:04;7.10;;;5.30;;
757;SDS011;363;48.764;9.172;2022-12-07T05:49:30;6.80;;;5.50;;
757;SDS011;363;48.764;9.172;2022-12-07T05:51:56;5.80;;;4.97;;
757;SDS011;363;48.764;9.172;2022-12-07T05:54:22;6.43;;;5.40;;
757;SDS011;363;48.764;9.172;2022-12-07T05:56:48;6.17;;;5.57;;
757;SDS011;363;48.764;9.172;2022-12-07T05:59:13;7.30;;;4.90;;
757;SDS011;363;48.764;9.172;2022-12-07T06:01:58;6.18;;;5.55;;
757;SDS011;363;48.764;9.172;2022-12-07T06:04:26;6.03;;;5.43;;
757;SDS011;363;48.764;9.172;2022-12-07T06:06:53;7.50;;;5.93;;
757;SDS011;363;48.764;9.172;2022-12-07T06:09:20;7.15;;;5.55;;
757;SDS011;363;48.764;9.172;2022-12-07T06:11:48;7.93;;;5.78;;
757;SDS011;363;48.764;9.172;2022-12-07T06:14:32;10.23;;;6.75;;
757;SDS011;363;48.764;9.172;2022-12-07T06:16:58;5.73;;;4.90;;
757;SDS011;363;48.764;9.172;2022-12-07T06:19:24;6.88;;;5.72;;
757;SDS011;363;48.764;9.172;2022-12-07T06:21:49;5.43;;;4.70;;
757;SDS011;363;48.764;9.172;2022-12-07T06:24:16;6.75;;;5.50;;
757;SDS011;363;48.764;9.172;2022-12-07T06:26:42;9.15;;;5.28;;
757;SDS011;363;48.764;9.172;2022-12-07T06:29:08;6.33;;;5.73;;
757;SDS011;363;48.764;9.172;2022-12-07T06:31:35;8.07;;;5.78;;
757;SDS011;363;48.764;9.172;2022-12-07T06:34:02;11.88;;;6.05;;
757;SDS011;363;48.764;9.172;2022-12-07T06:36:30;9.27;;;7.75;;
757;SDS011;363;48.764;9.172;2022-12-07T06:38:56;6.22;;;5.53;;
757;SDS011;363;48.764;9.172;2022-12-07T06:41:22;6.43;;;5.07;;
757;SDS011;363;48.764;9.172;2022-12-07T06:43:48;8.48;;;5.57;;
757;SDS011;363;48.764;9.172;2022-12-07T06:46:14;6.97;;;5.30;;
757;SDS011;363;48.764;9.172;2022-12-07T06:48:40;6.30;;;5.25;;
757;SDS011;363;48.764;9.172;2022-12-07T06:51:07;5.75;;;5.05;;
757;SDS011;363;48.764;9.172;2022-12-07T06:53:33;7.93;;;5.15;;
757;SDS011;363;48.764;9.172;2022-12-07T06:55:59;6.97;;;6.27;;
757;SDS011;363;48.764;9.172;2022-12-07T06:58:24;6.80;;;5.30;;
757;SDS011;363;48.764;9.172;2022-12-07T07:00:50;8.30;;;6.23;;
757;SDS011;363;48.764;9.172;2022-12-07T07:03:16;10.40;;;7.00;;
757;SDS011;363;48.764;9.172;2022-12-07T07:05:42;7.30;;;6.40;;
757;SDS011;363;48.764;9.172;2022-12-07T07:08:08;7.40;;;5.40;;
757;SDS011;363;48.764;9.172;2022-12-07T07:10:34;7.72;;;6.40;;
757;SDS011;363;48.764;9.172;2022-12-07T07:13:01;5.72;;;4.93;;
757;SDS011;363;48.764;9.172;2022-12-07T07:15:27;6.38;;;5.22;;
757;SDS011;363;48.764;9.172;2022-12-07T07:17:53;6.60;;;6.00;;
757;SDS011;363;48.764;9.172;2022-12-07T07:20:18;7.90;;;4.87;;
757;SDS011;363;48.764;9.172;2022-12-07T07:22:44;7.03;;;5.63;;
757;SDS011;363;48.764;9.172;2022-12-07T07:25:10;7.75;;;6.10;;
757;SDS011;363;48.764;9.172;2022-12-07T07:27:36;5.73;;;4.70;;
757;SDS011;363;48.764;9.172;2022-12-07T07:30:02;6.40;;;5.47;;
757;SDS011;363;48.764;9.172;2022-12-07T07:32:29;10.70;;;4.93;;
757;SDS011;363;48.764;9.172;2022-12-07T07:34:54;7.67;;;5.53;;
757;SDS011;363;48.764;9.172;2022-12-07T07:37:20;5.93;;;4.43;;
757;SDS011;363;48.764;9.172;2022-12-07T07:39:45;6.30;;;5.00;;
757;SDS011;363;48.764;9.172;2022-12-07T07:42:11;7.27;;;5.03;;
757;SDS011;363;48.764;9.172;2022-12-07T07:44:37;15.37;;;5.50;;
757;SDS011;363;48.764;9.172;2022-12-07T07:47:02;10.63;;;5.20;;
757;SDS011;363;48.764;9.172;2022-12-07T07:49:28;6.77;;;5.37;;
757;SDS011;363;48.764;9.172;2022-12-07T07:51:54;7.20;;;5.57;;
757;SDS011;363;48.764;9.172;2022-12-07T07:54:20;8.97;;;6.03;;
757;SDS011;363;48.764;9.172;2022-12-07T07:56:45;8.83;;;6.33;;
757;SDS011;363;48.764;9.172;2022-12-07T07:59:11;6.57;;;5.33;;
757;SDS011;363;48.764;9.172;2022-12-07T08:01:37;8.33;;;6.07;;
757;SDS011;363;48.764;9.172;2022-12-07T08:04:02;11.20;;;6.00;;
757;SDS011;363;48.764;9.172;2022-12-07T08:06:28;8.30;;;5.17;;
757;SDS011;363;48.764;9.172;2022-12-07T08:08:54;9.00;;;5.37;;
757;SDS011;363;48.764;9.172;2022-12-07T08:11:19;9.00;;;6.47;;
757;SDS011;363;48.764;9.172;2022-12-07T08:13:45;7.53;;;6.10;;
757;SDS011;363;48.764;9.172;2022-12-07T08:16:12;9.48;;;5.97;;
757;SDS011;363;48.764;9.172;2022-12-07T08:18:39;6.43;;;5.30;;
757;SDS011;363;48.764;9.172;2022-12-07T08:21:06;6.30;;;5.55;;
757;SDS011;363;48.764;9.172;2022-12-07T08:23:34;9.23;;;5.60;;
757;SDS011;363;48.764;9.172;2022-12-07T08:26:03;10.73;;;5.80;;
757;SDS011;363;48.764;9.172;2022-12-07T08:28:30;5.85;;;5.05;;
757;SDS011;363;48.764;9.172;2022-12-07T08:31:04;9.45;;;6.15;;
757;SDS011;363;48.764;9.172;2022-12-07T08:33:32;10.60;;;5.60;;
757;SDS011;363;48.764;9.172;2022-12-07T08:36:02;5.60;;;4.63;;
757;SDS011;363;48.764;9.172;2022-12-07T08:38:29;5.68;;;5.07;;
757;SDS011;363;48.764;9.172;2022-12-07T08:40:55;6.63;;;5.17;;
757;SDS011;363;48.764;9.172;2022-12-07T08:43:21;7.10;;;4.68;;
757;SDS011;363;48.764;9.172;2022-12-07T08:45:48;6.28;;;4.90;;
757;SDS011;363;48.764;9.172;2022-12-07T08:48:18;6.53;;;4.78;;
757;SDS011;363;48.764;9.172;2022-12-07T08:50:47;4.45;;;4.05;;
757;SDS011;363;48.764;9.172;2022-12-07T08:53:13;6.45;;;5.35;;
757;SDS011;363;48.764;9.172;2022-12-07T08:55:39;5.73;;;4.40;;
757;SDS011;363;48.764;9.172;2022-12-07T08:58:05;7.13;;;5.27;;
757;SDS011;363;48.764;9.172;2022-12-07T09:00:30;6.10;;;5.43;;
757;SDS011;363;48.764;9.172;2022-12-07T09:02:56;5.30;;;4.47;;
757;SDS011;363;48.764;9.172;2022-12-07T09:05:22;5.10;;;4.60;;
757;SDS011;363;48.764;9.172;2022-12-07T09:07:48;7.10;;;4.55;;
757;SDS011;363;48.764;9.172;2022-12-07T09:10:16;5.88;;;4.55;;
757;SDS011;363;48.764;9.172;2022-12-07T09:12:42;4.85;;;4.38;;
757;SDS011;363;48.764;9.172;2022-12-07T09:15:08;6.40;;;5.13;;
757;SDS011;363;48.764;9.172;2022-12-07T09:17:34;6.27;;;4.80;;
757;SDS011;363;48.764;9.172;2022-12-07T09:20:00;4.20;;;3.78;;
757;SDS011;363;48.764;9.172;2022-12-07T09:22:30;5.28;;;4.30;;
757;SDS011;363;48.764;9.172;2022-12-07T09:24:57;5.00;;;3.83;;
757;SDS011;363;48.764;9.172;2022-12-07T09:27:23;6.05;;;4.20;;
757;SDS011;363;48.764;9.172;2022-12-07T09:29:49;11.35;;;6.20;;
757;SDS011;363;48.764;9.172;2022-12-07T09:32:15;14.17;;;4.83;;
757;SDS011;363;48.764;9.172;2022-12-07T09:34:40;7.77;;;4.93;;
757;SDS011;363;48.764;9.172;2022-12-07T09:37:06;6.83;;;4.03;;
757;SDS011;363;48.764;9.172;2022-12-07T09:39:32;5.70;;;3.90;;
757;SDS011;363;48.764;9.172;2022-12-07T09:41:58;8.43;;;3.80;;
757;SDS011;363;48.764;9.172;2022-12-07T09:44:27;4.50;;;3.97;;
757;SDS011;363;48.764;9.172;2022-12-07T09:46:54;8.05;;;3.65;;
757;SDS011;363;48.764;9.172;2022-12-07T09:49:22;5.35;;;4.13;;
757;SDS011;363;48.764;9.172;2022-12-07T09:52:03;5.78;;;3.80;;
757;SDS011;363;48.764;9.172;2022-12-07T09:54:52;4.70;;;3.85;;
757;SDS011;363;48.764;9.172;2022-12-07T09:57:27;4.03;;;3.63;;
757;SDS011;363;48.764;9.172;2022-12-07T09:59:56;4.32;;;3.20;;
757;SDS011;363;48.764;9.172;2022-12-07T10:05:10;6.95;;;4.35;;
757;SDS011;363;48.764;9.172;2022-12-07T10:07:50;4.85;;;3.50;;
757;SDS011;363;48.764;9.172;2022-12-07T10:10:28;4.90;;;3.90;;
757;SDS011;363;48.764;9.172;2022-12-07T10:12:57;4.07;;;3.67;;
757;SDS011;363;48.764;9.172;2022-12-07T10:15:41;4.70;;;3.50;;
757;SDS011;363;48.764;9.172;2022-12-07T10:18:20;3.50;;;3.20;;
757;SDS011;363;48.764;9.172;2022-12-07T10:23:34;6.18;;;4.30;;
757;SDS011;363;48.764;9.172;2022-12-07T10:26:18;4.68;;;3.80;;
757;SDS011;363;48.764;9.172;2022-12-07T10:29:16;3.05;;;2.72;;
757;SDS011;363;48.764;9.172;2022-12-07T10:31:56;4.32;;;3.17;;
757;SDS011;363;48.764;9.172;2022-12-07T10:34:30;4.47;;;2.85;;
757;SDS011;363;48.764;9.172;2022-12-07T10:39:46;3.63;;;3.08;;
757;SDS011;363;48.764;9.172;2022-12-07T10:42:23;4.20;;;3.65;;
757;SDS011;363;48.764;9.172;2022-12-07T10:55:47;3.70;;;3.40;;
757;SDS011;363;48.764;9.172;2022-12-07T10:58:44;3.13;;;2.83;;
757;SDS011;363;48.764;9.172;2022-12-07T11:01:32;3.85;;;3.00;;
757;SDS011;363;48.764;9.172;2022-12-07T11:06:57;4.57;;;4.18;;
757;SDS011;363;48.764;9.172;2022-12-07T11:12:43;6.55;;;5.40;;
757;SDS011;363;48.764;9.172;2022-12-07T11:18:36;3.30;;;2.60;;
757;SDS011;363;48.764;9.172;2022-12-07T11:32:30;3.90;;;3.47;;
757;SDS011;363;48.764;9.172;2022-12-07T11:35:19;3.38;;;3.08;;
757;SDS011;363;48.764;9.172;2022-12-07T11:38:21;2.45;;;2.22;;
757;SDS011;363;48.764;9.172;2022-12-07T11:40:53;2.30;;;2.10;;
757;SDS011;363;48.764;9.172;2022-12-07T11:43:37;3.92;;;2.90;;
757;SDS011;363;48.764;9.172;2022-12-07T11:46:28;4.07;;;1.88;;
757;SDS011;363;48.764;9.172;2022-12-07T11:52:32;2.97;;;2.67;;
757;SDS011;363;48.764;9.172;2022-12-07T11:55:18;2.28;;;2.00;;
757;SDS011;363;48.764;9.172;2022-12-07T11:58:04;2.58;;;2.38;;
757;SDS011;363;48.764;9.172;2022-12-07T12:00:36;3.28;;;2.60;;
757;SDS011;363;48.764;9.172;2022-12-07T12:03:08;3.78;;;2.13;;
757;SDS011;363;48.764;9.172;2022-12-07T12:05:37;3.63;;;2.42;;
757;SDS011;363;48.764;9.172;2022-12-07T12:08:21;2.80;;;2.55;;
757;SDS011;363;48.764;9.172;2022-12-07T12:16:47;4.65;;;3.30;;
757;SDS011;363;48.764;9.172;2022-12-07T12:19:34;4.47;;;3.60;;
757;SDS011;363;48.764;9.172;2022-12-07T12:22:26;4.10;;;3.20;;
757;SDS011;363;48.764;9.172;2022-12-07T12:25:02;3.88;;;3.38;;
757;SDS011;363;48.764;9.172;2022-12-07T12:27:31;5.22;;;4.10;;
757;SDS011;363;48.764;9.172;2022-12-07T12:30:04;4.63;;;4.18;;
757;SDS011;363;48.764;9.172;2022-12-07T12:32:48;5.70;;;5.00;;
757;SDS011;363;48.764;9.172;2022-12-07T12:38:24;6.10;;;5.15;;
757;SDS011;363;48.764;9.172;2022-12-07T12:40:56;5.80;;;5.03;;
757;SDS011;363;48.764;9.172;2022-12-07T12:51:49;5.03;;;4.22;;
757;SDS011;363;48.764;9.172;2022-12-07T12:59:34;4.68;;;4.28;;
757;SDS011;363;48.764;9.172;2022-12-07T13:04:38;4.65;;;4.25;;
757;SDS011;363;48.764;9.172;2022-12-07T13:15:39;5.85;;;4.63;;
757;SDS011;363;48.764;9.172;2022-12-07T13:21:02;4.78;;;4.20;;
757;SDS011;363;48.764;9.172;2022-12-07T13:36:56;4.53;;;3.85;;
757;SDS011;363;48.764;9.172;2022-12-07T13:39:24;4.60;;;4.20;;
757;SDS011;363;48.764;9.172;2022-12-07T13:41:59;4.80;;;4.18;;
757;SDS011;363;48.764;9.172;2022-12-07T13:44:40;5.05;;;4.38;;
757;SDS011;363;48.764;9.172;2022-12-07T13:47:12;5.15;;;4.30;;
757;SDS011;363;48.764;9.172;2022-12-07T13:49:56;4.40;;;3.95;;
757;SDS011;363;48.764;9.172;2022-12-07T13:52:26;3.90;;;3.47;;
757;SDS011;363;48.764;9.172;2022-12-07T13:54:57;4.45;;;4.05;;
757;SDS011;363;48.764;9.172;2022-12-07T13:57:25;4.18;;;3.08;;
757;SDS011;363;48.764;9.172;2022-12-07T13:59:53;3.70;;;3.15;;
757;SDS011;363;48.764;9.172;2022-12-07T14:02:21;7.03;;;4.60;;
757;SDS011;363;48.764;9.172;2022-12-07T14:10:36;4.75;;;4.13;;
757;SDS011;363;48.764;9.172;2022-12-07T14:15:57;9.25;;;8.32;;
757;SDS011;363;48.764;9.172;2022-12-07T14:18:34;4.55;;;3.53;;
757;SDS011;363;48.764;9.172;2022-12-07T14:21:06;4.20;;;3.42;;
757;SDS011;363;48.764;9.172;2022-12-07T14:23:35;4.40;;;4.00;;
757;SDS011;363;48.764;9.172;2022-12-07T14:28:39;5.40;;;3.70;;
757;SDS011;363;48.764;9.172;2022-12-07T14:31:18;5.40;;;3.10;;
757;SDS011;363;48.764;9.172;2022-12-07T14:33:46;3.88;;;3.42;;
757;SDS011;363;48.764;9.172;2022-12-07T14:36:12;3.80;;;3.40;;
757;SDS011;363;48.764;9.172;2022-12-07T14:38:39;6.45;;;4.10;;
757;SDS011;363;48.764;9.172;2022-12-07T14:41:12;4.30;;;3.33;;
757;SDS011;363;48.764;9.172;2022-12-07T14:43:58;4.38;;;3.72;;
757;SDS011;363;48.764;9.172;2022-12-07T14:46:24;4.97;;;4.40;;
757;SDS011;363;48.764;9.172;2022-12-07T14:48:50;4.40;;;3.40;;
757;SDS011;363;48.764;9.172;2022-12-07T14:51:16;5.37;;;4.10;;
757;SDS011;363;48.764;9.172;2022-12-07T14:53:48;4.90;;;4.10;;
757;SDS011;363;48.764;9.172;2022-12-07T14:56:15;4.40;;;4.00;;
757;SDS011;363;48.764;9.172;2022-12-07T14:58:41;4.17;;;3.67;;
757;SDS011;363;48.764;9.172;2022-12-07T15:01:07;5.23;;;4.23;;
757;SDS011;363;48.764;9.172;2022-12-07T15:03:33;4.87;;;4.47;;
757;SDS011;363;48.764;9.172;2022-12-07T15:05:59;5.03;;;4.63;;
757;SDS011;363;48.764;9.172;2022-12-07T15:08:26;5.10;;;4.65;;
757;SDS011;363;48.764;9.172;2022-12-07T15:10:52;5.65;;;3.78;;
757;SDS011;363;48.764;9.172;2022-12-07T15:13:17;7.83;;;4.27;;
757;SDS011;363;48.764;9.172;2022-12-07T15:16:01;5.35;;;4.20;;
757;SDS011;363;48.764;9.172;2022-12-07T15:18:27;5.30;;;4.00;;
757;SDS011;363;48.764;9.172;2022-12-07T15:20:53;6.10;;;4.30;;
757;SDS011;363;48.764;9.172;2022-12-07T15:23:19;6.30;;;4.17;;
757;SDS011;363;48.764;9.172;2022-12-07T15:25:46;6.47;;;4.73;;
757;SDS011;363;48.764;9.172;2022-12-07T15:28:13;5.63;;;5.13;;
757;SDS011;363;48.764;9.172;2022-12-07T15:30:39;7.30;;;4.50;;
757;SDS011;363;48.764;9.172;2022-12-07T15:33:07;6.45;;;4.47;;
757;SDS011;363;48.764;9.172;2022-12-07T15:35:33;7.30;;;4.90;;
757;SDS011;363;48.764;9.172;2022-12-07T15:38:03;8.27;;;6.68;;
757;SDS011;363;48.764;9.172;2022-12-07T15:40:29;5.70;;;5.10;;
757;SDS011;363;48.764;9.172;2022-12-07T15:42:54;6.73;;;5.50;;
757;SDS011;363;48.764;9.172;2022-12-07T15:45:20;6.90;;;5.33;;
757;SDS011;363;48.764;9.172;2022-12-07T15:47:45;8.63;;;5.83;;
757;SDS011;363;48.764;9.172;2022-12-07T15:50:12;5.37;;;4.70;;
757;SDS011;363;48.764;9.172;2022-12-07T15:52:39;5.18;;;4.40;;
757;SDS011;363;48.764;9.172;2022-12-07T15:55:05;6.30;;;4.97;;
757;SDS011;363;48.764;9.172;2022-12-07T15:57:32;7.50;;;5.28;;
757;SDS011;363;48.764;9.172;2022-12-07T16:00:00;5.28;;;4.30;;
757;SDS011;363;48.764;9.172;2022-12-07T16:02:26;7.05;;;5.90;;
757;SDS011;363;48.764;9.172;2022-12-07T16:04:51;5.80;;;4.93;;
757;SDS011;363;48.764;9.172;2022-12-07T16:07:18;7.93;;;5.93;;
757;SDS011;363;48.764;9.172;2022-12-07T16:09:44;8.57;;;6.50;;
757;SDS011;363;48.764;9.172;2022-12-07T16:12:11;6.45;;;4.95;;
757;SDS011;363;48.764;9.172;2022-12-07T16:14:38;8.07;;;5.97;;
757;SDS011;363;48.764;9.172;2022-12-07T16:17:05;7.15;;;5.25;;
757;SDS011;363;48.764;9.172;2022-12-07T16:19:32;8.98;;;6.65;;
757;SDS011;363;48.764;9.172;2022-12-07T16:21:58;7.10;;;5.40;;
757;SDS011;363;48.764;9.172;2022-12-07T16:24:25;9.73;;;7.47;;
757;SDS011;363;48.764;9.172;2022-12-07T16:26:51;8.23;;;5.80;;
757;SDS011;363;48.764;9.172;2022-12-07T16:29:18;10.67;;;6.63;;
757;SDS011;363;48.764;9.172;2022-12-07T16:31:45;10.10;;;7.43;;
757;SDS011;363;48.764;9.172;2022-12-07T16:34:11;9.20;;;6.38;;
757;SDS011;363;48.764;9.172;2022-12-07T16:36:37;7.73;;;6.17;;
757;SDS011;363;48.764;9.172;2022-12-07T16:39:03;9.40;;;7.03;;
757;SDS011;363;48.764;9.172;2022-12-07T16:41:30;7.32;;;6.50;;
757;SDS011;363;48.764;9.172;2022-12-07T16:43:56;8.00;;;6.97;;
757;SDS011;363;48.764;9.172;2022-12-07T16:46:21;8.73;;;7.27;;
757;SDS011;363;48.764;9.172;2022-12-07T16:48:47;9.47;;;7.13;;
757;SDS011;363;48.764;9.172;2022-12-07T16:51:14;11.40;;;6.72;;
757;SDS011;363;48.764;9.172;2022-12-07T16:53:41;9.48;;;7.53;;
757;SDS011;363;48.764;9.172;2022-12-07T16:56:11;8.13;;;6.38;;
757;SDS011;363;48.764;9.172;2022-12-07T16:58:38;9.85;;;7.03;;
757;SDS011;363;48.764;9.172;2022-12-07T17:01:14;9.10;;;7.70;;
757;SDS011;363;48.764;9.172;2022-12-07T17:03:42;10.25;;;7.57;;
757;SDS011;363;48.764;9.172;2022-12-07T17:06:24;10.75;;;7.30;;
757;SDS011;363;48.764;9.172;2022-12-07T17:08:51;8.13;;;6.75;;
757;SDS011;363;48.764;9.172;2022-12-07T17:11:22;10.82;;;9.15;;
757;SDS011;363;48.764;9.172;2022-12-07T17:13:49;9.95;;;7.75;;
757;SDS011;363;48.764;9.172;2022-12-07T17:16:34;10.30;;;7.88;;
757;SDS011;363;48.764;9.172;2022-12-07T17:19:03;12.40;;;8.30;;
757;SDS011;363;48.764;9.172;2022-12-07T17:21:30;11.43;;;8.32;;
757;SDS011;363;48.764;9.172;2022-12-07T17:23:58;11.18;;;7.88;;
757;SDS011;363;48.764;9.172;2022-12-07T17:26:27;9.85;;;7.70;;
757;SDS011;363;48.764;9.172;2022-12-07T17:28:53;12.82;;;8.20;;
757;SDS011;363;48.764;9.172;2022-12-07T17:31:20;9.17;;;7.50;;
757;SDS011;363;48.764;9.172;2022-12-07T17:33:46;9.82;;;7.35;;
757;SDS011;363;48.764;9.172;2022-12-07T17:36:17;11.90;;;7.30;;
757;SDS011;363;48.764;9.172;2022-12-07T17:38:47;10.80;;;7.53;;
757;SDS011;363;48.764;9.172;2022-12-07T17:41:21;11.57;;;8.70;;
757;SDS011;363;48.764;9.172;2022-12-07T17:44:07;12.88;;;7.72;;
757;SDS011;363;48.764;9.172;2022-12-07T17:46:34;9.57;;;7.30;;
757;SDS011;363;48.764;9.172;2022-12-07T17:49:01;8.52;;;7.00;;
757;SDS011;363;48.764;9.172;2022-12-07T17:51:27;10.98;;;8.73;;
757;SDS011;363;48.764;9.172;2022-12-07T17:54:11;10.27;;;7.22;;
757;SDS011;363;48.764;9.172;2022-12-07T17:56:37;8.13;;;6.47;;
757;SDS011;363;48.764;9.172;2022-12-07T17:59:03;9.65;;;7.97;;
757;SDS011;363;48.764;9.172;2022-12-07T18:01:30;8.65;;;6.75;;
757;SDS011;363;48.764;9.172;2022-12-07T18:03:56;9.82;;;7.38;;
757;SDS011;363;48.764;9.172;2022-12-07T18:06:22;12.37;;;7.70;;
757;SDS011;363;48.764;9.172;2022-12-07T18:08:47;9.60;;;6.83;;
757;SDS011;363;48.764;9.172;2022-12-07T18:11:13;9.23;;;7.40;;
757;SDS011;363;48.764;9.172;2022-12-07T18:13:39;9.55;;;7.07;;
757;SDS011;363;48.764;9.172;2022-12-07T18:16:09;9.37;;;6.77;;
757;SDS011;363;48.764;9.172;2022-12-07T18:18:38;9.82;;;7.32;;
757;SDS011;363;48.764;9.172;2022-12-07T18:21:09;8.32;;;7.38;;
757;SDS011;363;48.764;9.172;2022-12-07T18:23:39;10.63;;;7.60;;
757;SDS011;363;48.764;9.172;2022-12-07T18:26:05;8.95;;;7.18;;